createdAt,value
2022-08-30T00:01:06.492Z,2.28
2022-08-30T00:03:35.298Z,1.70
2022-08-30T00:06:03.232Z,1.90
2022-08-30T00:08:30.154Z,2.17
2022-08-30T00:10:57.250Z,1.85
2022-08-30T00:13:24.507Z,1.83
2022-08-30T00:15:51.758Z,2.10
2022-08-30T00:18:19.760Z,1.75
2022-08-30T00:20:48.622Z,2.03
2022-08-30T00:23:16.220Z,1.75
2022-08-30T00:25:44.242Z,1.73
2022-08-30T00:28:12.838Z,2.05
2022-08-30T00:30:39.688Z,1.90
2022-08-30T00:33:06.936Z,1.77
2022-08-30T00:35:34.017Z,2.13
2022-08-30T00:38:00.847Z,2.70
2022-08-30T00:40:28.494Z,2.58
2022-08-30T00:43:05.599Z,2.88
2022-08-30T00:45:35.593Z,2.15
2022-08-30T00:48:03.078Z,2.20
2022-08-30T00:50:38.160Z,2.20
2022-08-30T00:53:07.871Z,2.05
2022-08-30T00:55:34.900Z,2.03
2022-08-30T00:58:07.195Z,1.70
2022-08-30T01:00:34.258Z,1.70
2022-08-30T01:03:01.019Z,1.80
2022-08-30T01:05:28.416Z,1.70
2022-08-30T01:07:55.037Z,1.85
2022-08-30T01:10:23.037Z,1.50
2022-08-30T01:12:49.851Z,1.50
2022-08-30T01:15:16.798Z,1.90
2022-08-30T01:17:44.513Z,1.60
2022-08-30T01:20:20.684Z,1.67
2022-08-30T01:22:49.984Z,1.52
2022-08-30T01:25:25.939Z,1.67
2022-08-30T01:27:58.829Z,1.60
2022-08-30T01:30:25.650Z,1.90
2022-08-30T01:33:00.352Z,2.08
2022-08-30T01:35:28.482Z,2.50
2022-08-30T01:37:55.802Z,2.30
2022-08-30T01:40:22.620Z,1.90
2022-08-30T01:42:50.131Z,1.98
2022-08-30T01:45:17.556Z,1.80
2022-08-30T01:47:44.316Z,1.77
2022-08-30T01:50:11.438Z,1.60
2022-08-30T01:52:38.300Z,1.75
2022-08-30T01:55:06.438Z,1.50
2022-08-30T01:57:33.185Z,1.95
2022-08-30T01:59:59.881Z,1.92
2022-08-30T02:02:28.607Z,1.80
2022-08-30T02:04:56.602Z,1.90
2022-08-30T02:07:25.540Z,2.30
2022-08-30T02:09:52.934Z,1.90
2022-08-30T02:12:20.415Z,2.17
2022-08-30T02:14:47.186Z,1.90
2022-08-30T02:17:17.200Z,1.75
2022-08-30T02:19:43.877Z,1.65
2022-08-30T02:22:10.762Z,1.80
2022-08-30T02:24:37.996Z,2.00
2022-08-30T02:27:05.318Z,2.00
2022-08-30T02:29:32.295Z,1.73
2022-08-30T02:32:00.317Z,2.20
2022-08-30T02:34:27.083Z,2.00
2022-08-30T02:36:53.979Z,1.67
2022-08-30T02:39:21.310Z,2.17
2022-08-30T02:41:48.307Z,1.65
2022-08-30T02:44:15.352Z,1.88
2022-08-30T02:46:42.056Z,1.60
2022-08-30T02:49:32.089Z,1.77
2022-08-30T02:51:55.879Z,1.88
2022-08-30T02:54:22.759Z,1.70
2022-08-30T02:56:49.818Z,1.70
2022-08-30T02:59:17.945Z,1.80
2022-08-30T03:01:44.799Z,2.05
2022-08-30T03:04:11.642Z,1.60
2022-08-30T03:06:38.728Z,1.70
2022-08-30T03:09:05.485Z,1.55
2022-08-30T03:11:32.639Z,1.45
2022-08-30T03:13:59.621Z,1.67
2022-08-30T03:16:26.513Z,1.80
2022-08-30T03:18:53.273Z,1.88
2022-08-30T03:21:19.947Z,1.40
2022-08-30T03:23:46.615Z,1.70
2022-08-30T03:26:14.864Z,1.63
2022-08-30T03:28:42.581Z,2.65
2022-08-30T03:31:09.617Z,1.42
2022-08-30T03:33:36.785Z,1.90
2022-08-30T03:36:03.795Z,2.30
2022-08-30T03:38:31.069Z,1.80
2022-08-30T03:40:57.847Z,1.90
2022-08-30T03:43:25.297Z,2.17
2022-08-30T03:45:52.580Z,2.20
2022-08-30T03:48:19.289Z,2.30
2022-08-30T03:50:45.913Z,1.90
2022-08-30T03:53:12.518Z,1.98
2022-08-30T03:55:39.295Z,2.10
2022-08-30T03:58:06.097Z,1.85
2022-08-30T04:00:32.940Z,2.20
2022-08-30T04:02:59.962Z,2.38
2022-08-30T04:05:27.282Z,2.63
2022-08-30T04:07:54.320Z,2.50
2022-08-30T04:10:21.391Z,2.28
2022-08-30T04:12:49.799Z,2.33
2022-08-30T04:15:18.368Z,1.98
2022-08-30T04:17:45.986Z,1.90
2022-08-30T04:20:12.846Z,2.08
2022-08-30T04:22:39.551Z,2.17
2022-08-30T04:25:08.595Z,2.33
2022-08-30T04:27:42.992Z,2.13
2022-08-30T04:30:10.359Z,2.25
2022-08-30T04:32:38.289Z,2.20
2022-08-30T04:35:05.771Z,2.05
2022-08-30T04:37:32.386Z,1.98
2022-08-30T04:40:02.510Z,1.98
2022-08-30T04:42:31.689Z,1.90
2022-08-30T04:45:00.111Z,1.90
2022-08-30T04:47:27.046Z,2.15
2022-08-30T04:49:53.986Z,1.75
2022-08-30T04:52:22.567Z,2.28
2022-08-30T04:54:56.552Z,2.45
2022-08-30T04:57:24.069Z,1.80
2022-08-30T04:59:50.737Z,2.17
2022-08-30T05:02:18.240Z,1.90
2022-08-30T05:05:03.846Z,2.20
2022-08-30T05:07:32.104Z,2.00
2022-08-30T05:09:59.226Z,2.35
2022-08-30T05:12:26.239Z,1.67
2022-08-30T05:14:52.961Z,2.03
2022-08-30T05:17:19.830Z,2.10
2022-08-30T05:19:49.991Z,2.10
2022-08-30T05:22:19.184Z,1.98
2022-08-30T05:24:51.500Z,1.92
2022-08-30T05:27:22.094Z,1.65
2022-08-30T05:29:49.458Z,1.70
2022-08-30T05:32:17.854Z,1.95
2022-08-30T05:34:45.700Z,1.42
2022-08-30T05:37:13.769Z,1.60
2022-08-30T05:39:50.681Z,2.30
2022-08-30T05:42:20.366Z,1.73
2022-08-30T05:44:52.478Z,1.63
2022-08-30T05:47:21.257Z,1.70
2022-08-30T05:49:50.131Z,1.80
2022-08-30T05:52:18.702Z,1.92
2022-08-30T05:54:51.803Z,1.80
2022-08-30T05:57:19.568Z,1.75
2022-08-30T05:59:48.465Z,1.70
2022-08-30T06:02:15.348Z,1.90
2022-08-30T06:04:42.640Z,2.20
2022-08-30T06:07:18.018Z,1.52
2022-08-30T06:09:49.829Z,2.00
2022-08-30T06:12:16.949Z,1.65
2022-08-30T06:14:43.905Z,2.00
2022-08-30T06:17:11.082Z,1.58
2022-08-30T06:19:40.648Z,1.77
2022-08-30T06:22:08.563Z,1.90
2022-08-30T06:24:56.282Z,1.42
2022-08-30T06:27:23.193Z,1.73
2022-08-30T06:29:54.103Z,1.92
2022-08-30T06:32:22.005Z,1.90
2022-08-30T06:34:49.287Z,2.03
2022-08-30T06:37:29.496Z,1.98
2022-08-30T06:42:32.271Z,1.92
2022-08-30T06:45:10.496Z,1.60
2022-08-30T06:47:40.383Z,2.08
2022-08-30T06:50:12.102Z,1.90
2022-08-30T06:52:43.754Z,1.85
2022-08-30T06:55:16.295Z,2.03
2022-08-30T06:57:45.050Z,1.52
2022-08-30T07:00:18.596Z,1.73
2022-08-30T07:02:45.946Z,1.90
2022-08-30T07:05:16.759Z,1.77
2022-08-30T07:07:45.620Z,2.00
2022-08-30T07:10:13.081Z,1.98
2022-08-30T07:12:39.896Z,1.52
2022-08-30T07:15:08.682Z,2.17
2022-08-30T07:17:54.370Z,1.52
2022-08-30T07:20:21.642Z,2.00
2022-08-30T07:22:48.986Z,1.90
2022-08-30T07:25:16.555Z,1.60
2022-08-30T07:27:46.936Z,1.60
2022-08-30T07:30:14.070Z,1.75
2022-08-30T07:32:40.995Z,1.73
2022-08-30T07:35:07.944Z,1.40
2022-08-30T07:37:35.102Z,1.75
2022-08-30T07:40:03.822Z,1.88
2022-08-30T07:42:30.565Z,1.60
2022-08-30T07:44:57.325Z,1.90
2022-08-30T07:47:24.105Z,1.60
2022-08-30T07:49:50.858Z,1.70
2022-08-30T07:52:17.533Z,2.05
2022-08-30T07:54:44.162Z,1.67
2022-08-30T07:57:12.457Z,1.73
2022-08-30T07:59:43.362Z,1.50
2022-08-30T08:02:10.277Z,1.77
2022-08-30T08:04:37.081Z,1.80
2022-08-30T08:07:03.728Z,1.42
2022-08-30T08:09:30.368Z,1.92
2022-08-30T08:11:57.372Z,1.50
2022-08-30T08:14:24.096Z,1.83
2022-08-30T08:16:50.926Z,1.90
2022-08-30T08:19:19.605Z,2.42
2022-08-30T08:21:46.529Z,1.67
2022-08-30T08:24:13.459Z,1.92
2022-08-30T08:26:41.126Z,2.00
2022-08-30T08:29:12.327Z,1.73
2022-08-30T08:31:41.318Z,1.90
2022-08-30T08:34:08.802Z,1.98
2022-08-30T08:36:36.047Z,2.03
2022-08-30T08:39:04.749Z,1.98
2022-08-30T08:41:46.414Z,1.65
2022-08-30T08:44:34.485Z,1.75
2022-08-30T08:47:13.849Z,1.80
2022-08-30T08:49:42.949Z,1.98
2022-08-30T08:52:33.996Z,1.63
2022-08-30T08:55:06.321Z,1.90
2022-08-30T08:57:35.214Z,1.70
2022-08-30T09:00:06.209Z,1.80
2022-08-30T09:02:40.870Z,1.90
2022-08-30T09:05:09.063Z,2.35
2022-08-30T09:07:40.611Z,2.15
2022-08-30T09:10:07.896Z,2.13
2022-08-30T09:12:34.754Z,1.95
2022-08-30T09:15:10.043Z,2.05
2022-08-30T09:17:58.597Z,1.90
2022-08-30T09:20:41.311Z,1.80
2022-08-30T09:23:27.274Z,1.95
2022-08-30T09:26:02.349Z,2.53
2022-08-30T09:28:32.268Z,1.75
2022-08-30T09:31:22.120Z,2.00
2022-08-30T09:34:07.900Z,2.00
2022-08-30T09:36:40.900Z,1.80
2022-08-30T09:39:21.478Z,2.10
2022-08-30T09:41:54.843Z,1.90
2022-08-30T09:44:27.894Z,2.10
2022-08-30T09:46:57.365Z,1.80
2022-08-30T09:49:41.494Z,1.90
2022-08-30T09:52:23.193Z,2.10
2022-08-30T09:55:18.681Z,2.25
2022-08-30T09:57:57.922Z,2.22
2022-08-30T10:00:31.350Z,2.40
2022-08-30T10:03:13.662Z,1.98
2022-08-30T10:05:55.714Z,2.08
2022-08-30T10:09:06.592Z,2.38
2022-08-30T10:11:59.424Z,2.53
2022-08-30T10:14:32.200Z,2.42
2022-08-30T10:17:11.041Z,2.25
2022-08-30T10:20:17.832Z,2.50
2022-08-30T10:22:50.821Z,2.92
2022-08-30T10:25:22.639Z,2.20
2022-08-30T10:27:53.567Z,2.08
2022-08-30T10:30:20.586Z,2.13
2022-08-30T10:33:06.765Z,2.50
2022-08-30T10:35:38.813Z,2.40
2022-08-30T10:38:06.903Z,2.67
2022-08-30T10:41:08.011Z,2.45
2022-08-30T10:44:16.176Z,2.58
2022-08-30T10:47:09.220Z,2.63
2022-08-30T10:49:44.068Z,2.47
2022-08-30T10:52:26.582Z,2.20
2022-08-30T10:55:23.691Z,2.53
2022-08-30T10:57:52.227Z,2.60
2022-08-30T11:00:30.024Z,2.45
2022-08-30T11:03:02.128Z,2.90
2022-08-30T11:05:57.462Z,2.50
2022-08-30T11:08:47.748Z,2.63
2022-08-30T11:11:31.057Z,2.55
2022-08-30T11:16:52.509Z,2.95
2022-08-30T11:19:39.246Z,2.92
2022-08-30T11:22:23.722Z,2.83
2022-08-30T11:25:08.453Z,3.20
2022-08-30T11:27:41.288Z,2.75
2022-08-30T11:30:39.061Z,3.05
2022-08-30T11:33:31.008Z,2.35
2022-08-30T11:35:57.887Z,2.90
2022-08-30T11:38:29.897Z,3.05
2022-08-30T11:41:02.301Z,2.85
2022-08-30T11:43:40.691Z,3.05
2022-08-30T11:46:38.563Z,2.60
2022-08-30T11:49:13.752Z,3.17
2022-08-30T11:52:26.457Z,2.90
2022-08-30T11:55:02.238Z,3.08
2022-08-30T11:57:50.571Z,3.10
2022-08-30T12:00:37.681Z,3.08
2022-08-30T12:03:08.811Z,3.47
2022-08-30T12:05:35.636Z,3.08
2022-08-30T12:08:04.993Z,2.92
2022-08-30T12:10:46.999Z,3.17
2022-08-30T12:13:38.605Z,2.85
2022-08-30T12:16:13.073Z,3.17
2022-08-30T12:18:51.359Z,3.03
2022-08-30T12:21:22.028Z,2.90
2022-08-30T12:24:15.705Z,3.17
2022-08-30T12:26:44.818Z,3.35
2022-08-30T12:29:22.602Z,3.25
2022-08-30T12:31:58.222Z,3.45
2022-08-30T12:34:30.705Z,3.35
2022-08-30T12:37:32.042Z,3.22
2022-08-30T12:40:04.422Z,3.40
2022-08-30T12:42:36.911Z,3.67
2022-08-30T12:45:14.003Z,3.42
2022-08-30T12:47:55.748Z,3.05
2022-08-30T12:50:26.135Z,3.40
2022-08-30T12:53:03.887Z,3.20
2022-08-30T12:55:34.801Z,2.70
2022-08-30T12:58:09.205Z,3.08
2022-08-30T13:00:45.151Z,3.17
2022-08-30T13:03:30.930Z,3.25
2022-08-30T13:05:57.725Z,3.65
2022-08-30T13:08:29.791Z,3.05
2022-08-30T13:10:57.680Z,3.30
2022-08-30T13:13:34.087Z,3.13
2022-08-30T13:16:20.644Z,3.08
2022-08-30T13:18:55.921Z,3.40
2022-08-30T13:21:31.808Z,3.30
2022-08-30T13:24:01.914Z,3.17
2022-08-30T13:26:30.761Z,3.33
2022-08-30T13:29:00.076Z,3.40
2022-08-30T13:31:28.393Z,3.08
2022-08-30T13:33:57.824Z,3.33
2022-08-30T13:36:33.125Z,3.25
2022-08-30T13:39:01.598Z,3.20
2022-08-30T13:41:30.118Z,3.50
2022-08-30T13:44:16.479Z,3.25
2022-08-30T13:46:53.276Z,3.08
2022-08-30T13:52:21.429Z,3.17
2022-08-30T13:54:50.532Z,3.00
2022-08-30T14:00:12.634Z,3.10
2022-08-30T14:02:46.382Z,2.90
2022-08-30T14:05:46.309Z,3.05
2022-08-30T14:08:03.776Z,2.97
2022-08-30T14:10:32.180Z,3.08
2022-08-30T14:13:07.857Z,2.75
2022-08-30T14:15:38.923Z,3.50
2022-08-30T14:18:06.421Z,3.33
2022-08-30T14:20:35.423Z,3.22
2022-08-30T14:23:10.185Z,3.13
2022-08-30T14:25:37.881Z,2.72
2022-08-30T14:28:08.221Z,2.83
2022-08-30T14:30:37.103Z,3.00
2022-08-30T14:33:04.054Z,2.72
2022-08-30T14:35:31.074Z,3.17
2022-08-30T14:37:58.567Z,2.70
2022-08-30T14:40:26.217Z,2.88
2022-08-30T14:42:54.169Z,2.88
2022-08-30T14:45:21.182Z,3.25
2022-08-30T14:47:50.051Z,2.75
2022-08-30T14:50:16.893Z,3.28
2022-08-30T14:52:45.381Z,3.08
2022-08-30T14:55:12.967Z,3.10
2022-08-30T14:57:40.399Z,3.05
2022-08-30T15:00:10.874Z,2.72
2022-08-30T15:02:37.751Z,2.80
2022-08-30T15:05:06.939Z,2.90
2022-08-30T15:07:35.557Z,2.50
2022-08-30T15:10:02.814Z,3.15
2022-08-30T15:12:29.546Z,2.70
2022-08-30T15:14:56.437Z,2.78
2022-08-30T15:17:23.143Z,2.58
2022-08-30T15:19:49.894Z,2.80
2022-08-30T15:22:17.050Z,2.90
2022-08-30T15:24:44.223Z,2.50
2022-08-30T15:27:16.062Z,3.33
2022-08-30T15:29:42.724Z,2.40
2022-08-30T15:32:09.489Z,2.53
2022-08-30T15:34:36.321Z,2.50
2022-08-30T15:37:04.902Z,2.60
2022-08-30T15:39:32.109Z,2.38
2022-08-30T15:42:01.057Z,2.17
2022-08-30T15:44:32.457Z,2.15
2022-08-30T15:47:03.705Z,2.47
2022-08-30T15:49:30.595Z,2.25
2022-08-30T15:52:01.129Z,2.40
2022-08-30T15:54:28.296Z,2.53
2022-08-30T15:56:59.472Z,2.20
2022-08-30T15:59:30.723Z,2.28
2022-08-30T16:01:57.916Z,2.50
2022-08-30T16:04:24.873Z,1.95
2022-08-30T16:06:52.326Z,2.38
2022-08-30T16:09:19.436Z,2.38
2022-08-30T16:11:46.238Z,1.95
2022-08-30T16:14:13.368Z,2.20
2022-08-30T16:16:41.827Z,2.65
2022-08-30T16:19:09.139Z,2.33
2022-08-30T16:21:39.828Z,2.33
2022-08-30T16:24:10.716Z,2.30
2022-08-30T16:26:42.488Z,2.10
2022-08-30T16:29:10.310Z,1.90
2022-08-30T16:31:37.870Z,2.00
2022-08-30T16:34:05.232Z,2.13
2022-08-30T16:36:33.295Z,1.98
2022-08-30T16:39:00.716Z,1.85
2022-08-30T16:41:27.605Z,1.90
2022-08-30T16:43:54.735Z,2.20
2022-08-30T16:46:27.274Z,2.17
2022-08-30T16:48:57.053Z,2.00
2022-08-30T16:51:26.266Z,2.07
2022-08-30T16:53:57.942Z,2.15
2022-08-30T16:56:26.623Z,2.13
2022-08-30T16:59:00.733Z,2.07
2022-08-30T17:01:29.567Z,1.73
2022-08-30T17:03:56.690Z,2.25
2022-08-30T17:06:23.829Z,2.22
2022-08-30T17:11:38.379Z,2.03
2022-08-30T17:14:07.257Z,2.40
2022-08-30T17:16:35.611Z,2.25
2022-08-30T17:19:05.020Z,1.67
2022-08-30T17:21:32.257Z,1.90
2022-08-30T17:24:01.886Z,2.25
2022-08-30T17:26:31.502Z,1.90
2022-08-30T17:28:58.369Z,2.28
2022-08-30T17:31:29.043Z,2.20
2022-08-30T17:34:01.225Z,2.08
2022-08-30T17:36:31.442Z,1.75
2022-08-30T17:38:58.153Z,1.90
2022-08-30T17:41:24.826Z,1.80
2022-08-30T17:43:51.520Z,1.80
2022-08-30T17:46:20.474Z,1.88
2022-08-30T17:48:47.766Z,2.40
2022-08-30T17:51:24.826Z,1.95
2022-08-30T17:53:52.130Z,1.80
2022-08-30T17:56:18.974Z,2.00
2022-08-30T17:58:47.418Z,1.80
2022-08-30T18:01:14.738Z,2.00
2022-08-30T18:03:42.349Z,1.90
2022-08-30T18:06:13.183Z,2.30
2022-08-30T18:08:40.077Z,1.90
2022-08-30T18:11:07.355Z,2.20
2022-08-30T18:13:35.455Z,2.17
2022-08-30T18:16:03.768Z,1.90
2022-08-30T18:18:31.097Z,2.17
2022-08-30T18:20:59.216Z,2.20
2022-08-30T18:23:27.139Z,2.10
2022-08-30T18:26:00.168Z,2.40
2022-08-30T18:28:28.698Z,2.40
2022-08-30T18:30:56.876Z,2.22
2022-08-30T18:33:25.148Z,2.20
2022-08-30T18:35:52.457Z,2.03
2022-08-30T18:38:23.500Z,1.80
2022-08-30T18:40:51.926Z,1.70
2022-08-30T18:43:18.894Z,2.17
2022-08-30T18:45:51.563Z,1.92
2022-08-30T18:48:19.244Z,2.00
2022-08-30T18:50:46.797Z,2.00
2022-08-30T18:53:14.710Z,2.30
2022-08-30T18:55:55.885Z,2.20
2022-08-30T18:58:22.479Z,2.30
2022-08-30T19:00:49.789Z,2.10
2022-08-30T19:03:22.366Z,2.00
2022-08-30T19:05:50.706Z,2.00
2022-08-30T19:08:17.597Z,1.88
2022-08-30T19:10:44.420Z,2.03
2022-08-30T19:13:11.150Z,2.10
2022-08-30T19:15:38.263Z,2.17
2022-08-30T19:18:16.761Z,2.10
2022-08-30T19:20:45.886Z,2.45
2022-08-30T19:23:14.365Z,2.50
2022-08-30T19:25:42.264Z,2.33
2022-08-30T19:28:09.775Z,2.33
2022-08-30T19:30:36.611Z,1.77
2022-08-30T19:33:03.613Z,2.10
2022-08-30T19:35:32.539Z,2.50
2022-08-30T19:37:59.634Z,2.38
2022-08-30T19:40:26.490Z,2.05
2022-08-30T19:42:53.316Z,2.17
2022-08-30T19:45:21.638Z,2.00
2022-08-30T19:47:48.754Z,1.98
2022-08-30T19:50:16.313Z,2.25
2022-08-30T19:52:44.537Z,2.17
2022-08-30T19:55:13.078Z,2.05
2022-08-30T19:57:39.956Z,2.00
2022-08-30T20:00:10.020Z,2.08
2022-08-30T20:02:41.822Z,1.92
2022-08-30T20:05:12.633Z,2.13
2022-08-30T20:07:39.658Z,2.20
2022-08-30T20:10:09.960Z,2.20
2022-08-30T20:12:37.000Z,2.33
2022-08-30T20:15:12.328Z,2.38
2022-08-30T20:18:02.714Z,2.13
2022-08-30T20:20:26.687Z,1.65
2022-08-30T20:22:54.887Z,1.85
2022-08-30T20:24:23.331Z,2.15
2022-08-30T20:25:21.934Z,1.90
2022-08-30T20:27:49.727Z,2.10
2022-08-30T20:30:17.746Z,1.95
2022-08-30T20:32:46.599Z,1.77
2022-08-30T20:35:17.544Z,2.00
2022-08-30T20:37:45.503Z,2.08
2022-08-30T20:40:16.020Z,1.90
2022-08-30T20:42:46.320Z,1.80
2022-08-30T20:45:15.575Z,2.05
2022-08-30T20:47:43.007Z,1.83
2022-08-30T20:50:13.735Z,2.03
2022-08-30T20:52:40.951Z,2.25
2022-08-30T20:55:09.083Z,1.88
2022-08-30T20:57:35.790Z,2.40
2022-08-30T21:00:04.052Z,1.90
2022-08-30T21:02:34.166Z,1.90
2022-08-30T21:07:28.325Z,2.25
2022-08-30T21:09:56.721Z,2.33
2022-08-30T21:12:24.183Z,2.08
2022-08-30T21:14:50.934Z,2.53
2022-08-30T21:17:18.393Z,2.45
2022-08-30T21:19:45.338Z,2.55
2022-08-30T21:22:12.334Z,2.35
2022-08-30T21:24:39.266Z,2.08
2022-08-30T21:27:07.476Z,2.17
2022-08-30T21:29:34.240Z,1.98
2022-08-30T21:32:00.983Z,2.05
2022-08-30T21:34:27.649Z,2.15
2022-08-30T21:36:54.368Z,2.80
2022-08-30T21:39:26.412Z,2.60
2022-08-30T21:41:56.874Z,2.50
2022-08-30T21:44:25.721Z,2.00
2022-08-30T21:46:53.534Z,2.10
2022-08-30T21:49:22.543Z,1.98
2022-08-30T21:51:50.862Z,2.20
2022-08-30T21:54:18.260Z,2.17
2022-08-30T21:56:46.475Z,2.50
2022-08-30T21:59:14.023Z,2.00
2022-08-30T22:01:43.172Z,2.13
2022-08-30T22:04:11.371Z,2.00
2022-08-30T22:06:40.833Z,2.15
2022-08-30T22:09:09.862Z,2.40
2022-08-30T22:11:36.906Z,1.95
2022-08-30T22:14:05.209Z,2.03
2022-08-30T22:16:32.358Z,2.33
2022-08-30T22:18:59.144Z,2.20
2022-08-30T22:21:28.221Z,2.17
2022-08-30T22:23:56.374Z,2.33
2022-08-30T22:26:24.541Z,2.25
2022-08-30T22:28:53.247Z,2.15
2022-08-30T22:31:22.142Z,2.40
2022-08-30T22:33:48.941Z,2.50
2022-08-30T22:36:23.410Z,2.65
2022-08-30T22:39:00.010Z,2.40
2022-08-30T22:41:31.283Z,2.20
2022-08-30T22:43:58.400Z,2.50
2022-08-30T22:46:34.333Z,2.38
2022-08-30T22:49:05.640Z,2.33
2022-08-30T22:51:33.673Z,2.30
2022-08-30T22:54:01.213Z,2.20
2022-08-30T22:56:28.657Z,2.47
2022-08-30T22:58:55.691Z,2.33
2022-08-30T23:01:29.809Z,2.38
2022-08-30T23:03:57.293Z,2.30
2022-08-30T23:06:24.386Z,2.63
2022-08-30T23:08:51.316Z,2.10
2022-08-30T23:11:18.611Z,2.40
2022-08-30T23:13:45.771Z,2.70
2022-08-30T23:16:14.206Z,2.20
2022-08-30T23:18:43.205Z,2.60
2022-08-30T23:21:18.454Z,2.22
2022-08-30T23:24:04.123Z,2.22
2022-08-30T23:26:49.640Z,2.50
2022-08-30T23:29:34.959Z,2.13
2022-08-30T23:32:20.594Z,2.25
2022-08-30T23:35:05.878Z,2.00
2022-08-30T23:37:53.088Z,2.20
2022-08-30T23:40:40.376Z,2.40
2022-08-30T23:43:26.485Z,2.10
2022-08-30T23:46:11.594Z,2.30
2022-08-30T23:49:06.328Z,2.30
2022-08-30T23:51:52.597Z,2.35
2022-08-30T23:54:37.940Z,2.80
2022-08-30T23:57:23.825Z,2.60
